createdAt,value
2023-08-05T00:00:20.487Z,26.40
2023-08-05T00:02:49.192Z,26.41
2023-08-05T00:05:18.055Z,26.38
2023-08-05T00:07:51.336Z,26.31
2023-08-05T00:10:20.206Z,26.30
2023-08-05T00:12:49.104Z,26.25
2023-08-05T00:15:19.642Z,26.25
2023-08-05T00:17:48.390Z,26.18
2023-08-05T00:20:17.260Z,26.15
2023-08-05T00:22:47.365Z,26.14
2023-08-05T00:25:16.195Z,26.11
2023-08-05T00:27:45.069Z,26.07
2023-08-05T00:30:14.370Z,26.03
2023-08-05T00:32:43.228Z,26.00
2023-08-05T00:35:12.063Z,25.96
2023-08-05T00:37:41.023Z,25.91
2023-08-05T00:40:11.175Z,25.85
2023-08-05T00:42:40.080Z,25.83
2023-08-05T00:45:09.625Z,25.75
2023-08-05T00:47:41.287Z,25.68
2023-08-05T00:50:11.064Z,25.68
2023-08-05T00:52:41.209Z,25.62
2023-08-05T00:55:10.142Z,25.66
2023-08-05T00:57:39.165Z,25.58
2023-08-05T01:00:09.345Z,25.63
2023-08-05T01:02:38.101Z,25.52
2023-08-05T01:05:07.128Z,25.50
2023-08-05T01:07:54.769Z,25.43
2023-08-05T01:10:25.141Z,25.40
2023-08-05T01:12:53.880Z,25.42
2023-08-05T01:15:22.852Z,25.31
2023-08-05T01:17:54.333Z,25.37
2023-08-05T01:20:26.100Z,25.36
2023-08-05T01:22:58.543Z,25.27
2023-08-05T01:25:30.428Z,25.25
2023-08-05T01:28:01.898Z,25.24
2023-08-05T01:30:33.255Z,25.19
2023-08-05T01:33:05.423Z,25.17
2023-08-05T01:35:34.184Z,25.19
2023-08-05T01:38:02.961Z,25.06
2023-08-05T01:40:31.971Z,25.05
2023-08-05T01:43:04.416Z,25.02
2023-08-05T01:45:34.724Z,25.04
2023-08-05T01:48:03.576Z,24.98
2023-08-05T01:50:32.421Z,24.94
2023-08-05T01:53:02.784Z,24.79
2023-08-05T01:55:31.704Z,24.83
2023-08-05T01:58:03.737Z,24.85
2023-08-05T02:00:32.721Z,24.85
2023-08-05T02:03:01.624Z,24.79
2023-08-05T02:05:30.498Z,24.67
2023-08-05T02:07:59.239Z,24.67
2023-08-05T02:10:27.990Z,24.67
2023-08-05T02:12:58.439Z,24.62
2023-08-05T02:15:28.989Z,24.61
2023-08-05T02:17:57.881Z,24.57
2023-08-05T02:20:26.729Z,24.55
2023-08-05T02:22:55.421Z,24.49
2023-08-05T02:25:25.846Z,24.48
2023-08-05T02:27:54.565Z,24.44
2023-08-05T02:30:23.270Z,24.44
2023-08-05T02:32:52.017Z,24.38
2023-08-05T02:35:20.720Z,24.35
2023-08-05T02:37:49.527Z,24.37
2023-08-05T02:40:18.421Z,24.32
2023-08-05T02:42:49.120Z,24.29
2023-08-05T02:45:17.971Z,24.17
2023-08-05T02:47:46.859Z,24.18
2023-08-05T02:50:15.709Z,24.18
2023-08-05T02:52:44.319Z,24.16
2023-08-05T02:55:13.223Z,24.07
2023-08-05T02:57:41.925Z,24.09
2023-08-05T03:00:11.994Z,24.10
2023-08-05T03:02:40.829Z,24.07
2023-08-05T03:05:09.929Z,24.03
2023-08-05T03:07:38.723Z,24.02
2023-08-05T03:10:08.057Z,23.95
2023-08-05T03:12:37.087Z,23.96
2023-08-05T03:15:06.247Z,23.92
2023-08-05T03:17:36.568Z,23.83
2023-08-05T03:20:07.042Z,23.84
2023-08-05T03:22:35.905Z,23.89
2023-08-05T03:25:04.654Z,23.93
2023-08-05T03:27:33.513Z,23.91
2023-08-05T03:30:02.232Z,23.95
2023-08-05T03:32:30.981Z,23.92
2023-08-05T03:34:59.774Z,23.90
2023-08-05T03:37:30.934Z,23.88
2023-08-05T03:40:04.122Z,23.96
2023-08-05T03:42:32.951Z,23.99
2023-08-05T03:45:01.815Z,24.02
2023-08-05T03:47:36.193Z,23.96
2023-08-05T03:50:05.294Z,23.91
2023-08-05T03:52:41.504Z,24.01
2023-08-05T03:55:10.562Z,24.54
2023-08-05T03:57:40.874Z,25.21
2023-08-05T04:00:10.601Z,25.65
2023-08-05T04:02:39.542Z,26.16
2023-08-05T04:05:08.725Z,26.38
2023-08-05T04:07:38.987Z,26.59
2023-08-05T04:10:08.707Z,26.63
2023-08-05T04:12:37.702Z,26.57
2023-08-05T04:15:09.365Z,27.14
2023-08-05T04:17:38.145Z,27.31
2023-08-05T04:20:08.093Z,27.70
2023-08-05T04:22:37.957Z,27.83
2023-08-05T04:25:07.877Z,28.07
2023-08-05T04:27:38.536Z,28.46
2023-08-05T04:30:09.189Z,28.82
2023-08-05T04:32:42.423Z,28.24
2023-08-05T04:35:11.657Z,27.07
2023-08-05T04:37:40.397Z,26.40
2023-08-05T04:40:12.913Z,25.92
2023-08-05T04:42:41.741Z,25.57
2023-08-05T04:45:12.348Z,25.56
2023-08-05T04:47:42.726Z,25.37
2023-08-05T04:50:13.428Z,25.33
2023-08-05T04:52:45.517Z,25.38
2023-08-05T04:55:16.931Z,25.30
2023-08-05T04:57:47.378Z,25.46
2023-08-05T05:00:16.168Z,25.55
2023-08-05T05:02:44.858Z,25.58
2023-08-05T05:05:14.255Z,25.55
2023-08-05T05:07:43.051Z,25.59
2023-08-05T05:10:13.686Z,25.68
2023-08-05T05:12:44.223Z,25.63
2023-08-05T05:15:13.309Z,25.71
2023-08-05T05:17:42.149Z,25.73
2023-08-05T05:20:11.316Z,25.76
2023-08-05T05:22:40.340Z,25.76
2023-08-05T05:25:09.332Z,25.76
2023-08-05T05:27:38.904Z,25.97
2023-08-05T05:30:08.473Z,26.09
2023-08-05T05:32:37.561Z,26.14
2023-08-05T05:35:06.664Z,26.19
2023-08-05T05:37:37.010Z,26.27
2023-08-05T05:40:06.206Z,26.19
2023-08-05T05:42:35.022Z,26.28
2023-08-05T05:45:04.206Z,26.34
2023-08-05T05:47:32.933Z,26.48
2023-08-05T05:50:01.942Z,26.45
2023-08-05T05:52:31.315Z,26.42
2023-08-05T05:55:00.129Z,26.60
2023-08-05T05:57:29.019Z,26.64
2023-08-05T06:00:00.928Z,26.72
2023-08-05T06:02:33.477Z,26.85
2023-08-05T06:05:02.456Z,27.05
2023-08-05T06:07:33.593Z,27.02
2023-08-05T06:10:04.212Z,26.77
2023-08-05T06:12:34.641Z,26.93
2023-08-05T06:15:05.391Z,26.94
2023-08-05T06:17:34.279Z,27.00
2023-08-05T06:20:04.050Z,27.15
2023-08-05T06:22:32.722Z,27.31
2023-08-05T06:25:01.791Z,27.29
2023-08-05T06:27:31.977Z,27.29
2023-08-05T06:30:01.487Z,27.00
2023-08-05T06:32:30.320Z,27.17
2023-08-05T06:34:59.221Z,27.23
2023-08-05T06:37:27.814Z,27.43
2023-08-05T06:39:58.504Z,27.46
2023-08-05T06:42:36.539Z,27.65
2023-08-05T06:45:10.978Z,27.66
2023-08-05T06:47:40.085Z,27.71
2023-08-05T06:50:10.986Z,27.79
2023-08-05T06:52:39.705Z,27.91
2023-08-05T06:55:09.978Z,28.07
2023-08-05T06:57:42.853Z,28.07
2023-08-05T07:00:12.587Z,27.95
2023-08-05T07:02:41.394Z,27.93
2023-08-05T07:05:10.287Z,27.97
2023-08-05T07:07:38.975Z,28.10
2023-08-05T07:10:10.025Z,28.28
2023-08-05T07:12:40.334Z,28.32
2023-08-05T07:15:13.661Z,28.42
2023-08-05T07:17:43.223Z,28.51
2023-08-05T07:20:12.563Z,28.66
2023-08-05T07:22:41.524Z,28.60
2023-08-05T07:25:10.383Z,28.68
2023-08-05T07:27:39.123Z,28.58
2023-08-05T07:30:09.281Z,28.56
2023-08-05T07:32:38.196Z,28.65
2023-08-05T07:35:09.175Z,28.64
2023-08-05T07:37:38.024Z,28.69
2023-08-05T07:40:08.765Z,28.72
2023-08-05T07:42:37.516Z,28.73
2023-08-05T07:45:08.290Z,28.81
2023-08-05T07:47:38.533Z,28.93
2023-08-05T07:50:08.664Z,28.92
2023-08-05T07:52:37.540Z,29.12
2023-08-05T07:55:10.411Z,28.97
2023-08-05T07:57:42.253Z,28.86
2023-08-05T08:00:13.176Z,29.02
2023-08-05T08:02:45.981Z,29.07
2023-08-05T08:05:19.632Z,29.00
2023-08-05T08:07:48.677Z,29.05
2023-08-05T08:10:17.900Z,29.23
2023-08-05T08:12:49.687Z,29.32
2023-08-05T08:15:30.465Z,29.20
2023-08-05T08:17:59.531Z,29.27
2023-08-05T08:20:28.370Z,29.69
2023-08-05T08:23:07.194Z,29.63
2023-08-05T08:25:38.478Z,29.48
2023-08-05T08:28:35.049Z,29.51
2023-08-05T08:37:02.416Z,29.58
2023-08-05T08:39:31.285Z,29.59
2023-08-05T08:42:00.287Z,29.85
2023-08-05T08:44:35.271Z,30.18
2023-08-05T08:47:15.052Z,30.53
2023-08-05T08:49:47.432Z,30.67
2023-08-05T08:52:23.167Z,30.55
2023-08-05T08:55:00.572Z,30.66
2023-08-05T08:57:31.222Z,30.58
2023-08-05T09:00:01.857Z,30.40
2023-08-05T09:02:32.978Z,30.46
2023-08-05T09:05:11.768Z,30.35
2023-08-05T09:07:46.477Z,30.14
2023-08-05T09:14:00.322Z,30.52
2023-08-05T09:16:20.989Z,30.48
2023-08-05T09:18:59.357Z,30.71
2023-08-05T09:21:28.068Z,30.91
2023-08-05T09:23:58.030Z,31.01
2023-08-05T09:26:33.533Z,31.07
2023-08-05T09:29:09.055Z,31.26
2023-08-05T09:31:39.368Z,31.13
2023-08-05T09:34:10.740Z,31.44
2023-08-05T09:36:41.936Z,31.75
2023-08-05T09:39:18.038Z,31.90
2023-08-05T09:41:59.251Z,31.81
2023-08-05T09:44:28.937Z,31.46
2023-08-05T09:47:11.511Z,31.40
2023-08-05T09:49:42.923Z,31.28
2023-08-05T09:52:15.124Z,31.49
2023-08-05T09:54:47.434Z,31.68
2023-08-05T09:57:29.997Z,31.73
2023-08-05T10:00:06.859Z,31.62
2023-08-05T10:02:37.389Z,31.77
2023-08-05T10:05:09.180Z,31.69
2023-08-05T10:08:06.023Z,31.68
2023-08-05T10:10:33.018Z,31.95
2023-08-05T10:13:07.102Z,31.83
2023-08-05T10:15:41.944Z,32.06
2023-08-05T10:18:12.580Z,32.31
2023-08-05T10:20:46.038Z,32.16
2023-08-05T10:23:19.709Z,32.11
2023-08-05T10:25:53.964Z,32.09
2023-08-05T10:28:28.730Z,32.07
2023-08-05T10:30:58.894Z,32.04
2023-08-05T10:33:30.582Z,32.17
2023-08-05T10:36:09.547Z,32.13
2023-08-05T10:38:44.495Z,32.12
2023-08-05T10:41:18.961Z,32.22
2023-08-05T10:43:48.582Z,32.59
2023-08-05T10:46:19.049Z,32.78
2023-08-05T10:48:52.302Z,32.89
2023-08-05T10:51:24.221Z,33.16
2023-08-05T10:54:08.175Z,33.27
2023-08-05T10:56:39.732Z,33.30
2023-08-05T10:59:15.276Z,33.20
2023-08-05T11:02:01.417Z,33.12
2023-08-05T11:04:49.471Z,33.24
2023-08-05T11:07:30.363Z,33.36
2023-08-05T11:10:00.581Z,33.34
2023-08-05T11:12:32.794Z,33.31
2023-08-05T11:15:05.062Z,33.21
2023-08-05T11:17:35.407Z,33.06
2023-08-05T11:20:07.869Z,33.23
2023-08-05T11:22:37.948Z,33.20
2023-08-05T11:25:10.400Z,33.46
2023-08-05T11:27:43.308Z,33.48
2023-08-05T11:30:19.971Z,33.66
2023-08-05T11:32:58.890Z,33.42
2023-08-05T11:35:31.064Z,33.30
2023-08-05T11:38:00.317Z,33.43
2023-08-05T11:40:29.322Z,33.43
2023-08-05T11:42:58.982Z,33.24
2023-08-05T11:45:27.808Z,33.24
2023-08-05T11:47:56.966Z,33.57
2023-08-05T11:50:28.800Z,33.57
2023-08-05T11:53:08.991Z,33.36
2023-08-05T11:55:43.544Z,33.45
2023-08-05T11:58:16.239Z,33.42
2023-08-05T12:00:50.520Z,33.42
2023-08-05T12:03:22.858Z,33.51
2023-08-05T12:05:51.703Z,33.69
2023-08-05T12:08:46.499Z,33.92
2023-08-05T12:11:25.963Z,33.92
2023-08-05T12:16:57.554Z,34.20
2023-08-05T12:19:28.295Z,34.01
2023-08-05T12:21:57.386Z,33.58
2023-08-05T12:24:26.134Z,33.58
2023-08-05T12:26:55.029Z,33.78
2023-08-05T12:29:23.739Z,33.94
2023-08-05T12:31:52.655Z,33.96
2023-08-05T12:34:23.362Z,33.61
2023-08-05T12:36:53.700Z,33.97
2023-08-05T12:39:22.531Z,33.97
2023-08-05T12:44:50.543Z,33.49
2023-08-05T12:47:27.204Z,33.68
2023-08-05T12:49:59.561Z,33.88
2023-08-05T12:52:34.103Z,33.95
2023-08-05T12:55:07.435Z,33.69
2023-08-05T12:57:36.647Z,33.89
2023-08-05T13:00:06.011Z,33.89
2023-08-05T13:02:37.276Z,33.95
2023-08-05T13:05:06.321Z,33.81
2023-08-05T13:07:38.000Z,33.82
2023-08-05T13:10:10.327Z,33.61
2023-08-05T13:12:41.800Z,33.70
2023-08-05T13:15:11.474Z,33.94
2023-08-05T13:17:40.321Z,34.12
2023-08-05T13:20:10.078Z,34.13
2023-08-05T13:22:40.122Z,34.40
2023-08-05T13:25:17.509Z,34.49
2023-08-05T13:27:49.696Z,34.46
2023-08-05T13:30:29.016Z,34.14
2023-08-05T13:32:59.775Z,34.30
2023-08-05T13:35:31.702Z,34.41
2023-08-05T13:38:19.194Z,34.41
2023-08-05T13:41:08.192Z,34.24
2023-08-05T13:49:45.068Z,34.22
2023-08-05T13:52:15.458Z,34.07
2023-08-05T13:54:56.459Z,34.28
2023-08-05T13:57:55.834Z,34.17
2023-08-05T14:00:24.938Z,34.09
2023-08-05T14:02:56.700Z,34.21
2023-08-05T14:05:25.664Z,34.23
2023-08-05T14:08:02.058Z,34.49
2023-08-05T14:10:30.844Z,34.39
2023-08-05T14:12:59.730Z,34.12
2023-08-05T14:15:44.961Z,34.19
2023-08-05T14:18:15.063Z,34.22
2023-08-05T14:20:48.548Z,34.46
2023-08-05T14:23:17.931Z,34.35
2023-08-05T14:25:51.288Z,34.28
2023-08-05T14:28:21.981Z,34.29
2023-08-05T14:30:51.016Z,34.51
2023-08-05T14:33:22.998Z,34.58
2023-08-05T14:35:54.470Z,35.27
2023-08-05T14:38:22.768Z,36.48
2023-08-05T14:40:51.827Z,36.62
2023-08-05T14:43:21.090Z,36.67
2023-08-05T14:46:00.972Z,36.75
2023-08-05T14:48:40.782Z,36.74
2023-08-05T14:51:10.358Z,36.89
2023-08-05T14:53:55.458Z,37.73
2023-08-05T14:56:30.957Z,37.89
2023-08-05T14:59:05.818Z,37.44
2023-08-05T15:01:36.359Z,37.55
2023-08-05T15:07:19.848Z,37.89
2023-08-05T15:13:34.733Z,37.62
2023-08-05T15:16:13.803Z,37.70
2023-08-05T15:18:45.108Z,38.31
2023-08-05T15:21:14.193Z,38.10
2023-08-05T15:23:44.929Z,37.59
2023-08-05T15:26:13.487Z,37.55
2023-08-05T15:28:42.220Z,37.70
2023-08-05T15:31:26.263Z,38.13
2023-08-05T15:34:02.792Z,38.26
2023-08-05T15:36:37.744Z,38.18
2023-08-05T15:39:13.666Z,38.15
2023-08-05T15:41:55.033Z,37.56
2023-08-05T15:44:30.149Z,37.68
2023-08-05T15:47:37.884Z,37.34
2023-08-05T15:49:39.596Z,36.73
2023-08-05T15:52:11.612Z,37.05
2023-08-05T15:54:45.309Z,36.96
2023-08-05T15:57:18.773Z,36.53
2023-08-05T15:59:54.232Z,37.09
2023-08-05T16:02:27.211Z,36.79
2023-08-05T16:04:58.141Z,36.89
2023-08-05T16:07:31.727Z,36.52
2023-08-05T16:10:10.562Z,36.68
2023-08-05T16:12:41.427Z,36.71
2023-08-05T16:15:12.258Z,35.94
2023-08-05T16:17:43.910Z,35.77
2023-08-05T16:20:16.539Z,35.24
2023-08-05T16:22:56.286Z,34.59
2023-08-05T16:25:23.513Z,34.01
2023-08-05T16:30:50.273Z,33.35
2023-08-05T16:33:42.782Z,32.92
2023-08-05T16:36:13.343Z,32.92
2023-08-05T16:38:44.762Z,32.90
2023-08-05T16:41:13.781Z,32.82
2023-08-05T16:43:44.292Z,32.70
2023-08-05T16:46:13.582Z,32.50
2023-08-05T16:48:42.437Z,32.21
2023-08-05T16:51:12.677Z,32.20
2023-08-05T16:53:41.959Z,32.25
2023-08-05T16:56:11.695Z,32.14
2023-08-05T16:58:42.303Z,32.12
2023-08-05T17:01:33.649Z,31.94
2023-08-05T17:04:04.132Z,31.97
2023-08-05T17:06:33.256Z,31.74
2023-08-05T17:09:02.111Z,31.64
2023-08-05T17:12:05.069Z,31.47
2023-08-05T17:15:03.063Z,31.39
2023-08-05T17:17:24.067Z,31.21
2023-08-05T17:19:52.928Z,31.02
2023-08-05T17:22:26.203Z,31.00
2023-08-05T17:24:56.761Z,30.91
2023-08-05T17:27:27.368Z,30.84
2023-08-05T17:29:56.225Z,30.73
2023-08-05T17:32:41.384Z,30.53
2023-08-05T17:35:10.548Z,30.45
2023-08-05T17:37:42.420Z,30.44
2023-08-05T17:40:14.313Z,30.28
2023-08-05T17:42:43.105Z,30.22
2023-08-05T17:45:15.347Z,30.04
2023-08-05T17:47:45.079Z,29.92
2023-08-05T17:50:13.970Z,29.82
2023-08-05T17:52:50.116Z,29.77
2023-08-05T17:55:18.916Z,29.72
2023-08-05T17:57:52.314Z,29.64
2023-08-05T18:00:22.521Z,29.57
2023-08-05T18:02:51.279Z,29.42
2023-08-05T18:05:20.256Z,29.29
2023-08-05T18:07:49.082Z,29.27
2023-08-05T18:10:17.852Z,29.28
2023-08-05T18:12:47.104Z,29.27
2023-08-05T18:15:16.424Z,29.23
2023-08-05T18:17:46.870Z,29.18
2023-08-05T18:20:15.745Z,29.04
2023-08-05T18:22:45.033Z,29.08
2023-08-05T18:25:13.818Z,29.14
2023-08-05T18:27:42.550Z,29.06
2023-08-05T18:30:11.749Z,29.06
2023-08-05T18:32:41.995Z,28.85
2023-08-05T18:35:14.074Z,28.81
2023-08-05T18:37:45.317Z,28.76
2023-08-05T18:40:16.294Z,28.74
2023-08-05T18:42:47.322Z,28.63
2023-08-05T18:45:15.697Z,28.70
2023-08-05T18:47:44.537Z,28.74
2023-08-05T18:50:15.379Z,28.64
2023-08-05T18:52:44.929Z,27.88
2023-08-05T18:55:13.735Z,26.67
2023-08-05T18:57:42.472Z,25.99
2023-08-05T19:00:12.021Z,25.15
2023-08-05T19:02:40.778Z,24.73
2023-08-05T19:05:10.769Z,24.40
2023-08-05T19:07:39.750Z,23.96
2023-08-05T19:10:08.498Z,23.79
2023-08-05T19:12:37.137Z,23.77
2023-08-05T19:15:07.123Z,23.74
2023-08-05T19:17:42.424Z,23.56
2023-08-05T19:20:23.326Z,23.41
2023-08-05T19:22:52.255Z,23.45
2023-08-05T19:25:22.804Z,23.40
2023-08-05T19:28:00.467Z,23.31
2023-08-05T19:30:38.265Z,23.59
2023-08-05T19:33:12.061Z,23.41
2023-08-05T19:35:43.307Z,23.44
2023-08-05T19:38:12.496Z,23.52
2023-08-05T19:40:58.413Z,23.31
2023-08-05T19:43:35.283Z,23.31
2023-08-05T19:46:09.547Z,23.05
2023-08-05T19:48:38.758Z,23.11
2023-08-05T19:51:14.311Z,22.96
2023-08-05T19:53:41.345Z,22.84
2023-08-05T19:56:10.190Z,22.91
2023-08-05T19:58:39.281Z,22.72
2023-08-05T20:01:10.000Z,22.76
2023-08-05T20:03:38.987Z,22.76
2023-08-05T20:06:10.696Z,22.60
2023-08-05T20:08:40.890Z,22.51
2023-08-05T20:11:13.170Z,22.49
2023-08-05T20:13:42.012Z,22.37
2023-08-05T20:16:10.780Z,22.25
2023-08-05T20:18:39.558Z,22.26
2023-08-05T20:21:08.254Z,22.28
2023-08-05T20:23:37.616Z,22.26
2023-08-05T20:26:12.400Z,22.44
2023-08-05T20:28:41.165Z,22.52
2023-08-05T20:31:11.617Z,22.38
2023-08-05T20:36:34.780Z,22.13
2023-08-05T20:39:04.571Z,21.94
2023-08-05T20:41:33.266Z,21.99
2023-08-05T20:44:02.090Z,21.90
2023-08-05T20:46:30.946Z,21.84
2023-08-05T20:48:59.624Z,21.87
2023-08-05T20:51:31.496Z,22.01
2023-08-05T20:54:00.305Z,21.93
2023-08-05T20:56:28.998Z,22.04
2023-08-05T20:58:57.809Z,22.07
2023-08-05T21:01:26.617Z,22.21
2023-08-05T21:03:55.427Z,22.17
2023-08-05T21:06:24.143Z,22.16
2023-08-05T21:08:52.858Z,22.21
2023-08-05T21:11:21.642Z,22.16
2023-08-05T21:13:50.405Z,22.11
2023-08-05T21:16:20.253Z,21.98
2023-08-05T21:18:49.139Z,22.03
2023-08-05T21:21:18.004Z,21.96
2023-08-05T21:23:46.863Z,21.84
2023-08-05T21:26:16.564Z,21.69
2023-08-05T21:28:45.388Z,21.58
2023-08-05T21:31:14.243Z,21.51
2023-08-05T21:33:42.935Z,21.39
2023-08-05T21:36:11.943Z,21.32
2023-08-05T21:38:40.827Z,20.85
2023-08-05T21:48:00.143Z,20.49
2023-08-05T21:50:28.986Z,20.48
2023-08-05T21:52:57.702Z,20.59
2023-08-05T21:55:26.356Z,20.46
2023-08-05T21:57:55.105Z,20.80
2023-08-05T22:00:25.704Z,20.78
2023-08-05T22:02:54.497Z,20.86
2023-08-05T22:05:23.469Z,21.00
2023-08-05T22:07:52.643Z,20.81
2023-08-05T22:10:22.253Z,20.60
2023-08-05T22:12:51.945Z,20.72
2023-08-05T22:15:20.801Z,20.60
2023-08-05T22:17:50.143Z,20.18
2023-08-05T22:20:18.951Z,19.45
2023-08-05T22:22:49.610Z,19.22
2023-08-05T22:25:18.511Z,19.50
2023-08-05T22:27:47.595Z,19.44
2023-08-05T22:30:16.487Z,19.46
2023-08-05T22:32:45.555Z,19.60
2023-08-05T22:35:14.364Z,19.64
2023-08-05T22:37:47.751Z,19.64
2023-08-05T22:40:19.395Z,19.51
2023-08-05T22:42:47.156Z,19.39
2023-08-05T22:45:16.094Z,19.40
2023-08-05T22:47:47.996Z,19.47
2023-08-05T22:50:19.705Z,19.37
2023-08-05T22:52:48.411Z,19.56
2023-08-05T22:55:17.329Z,19.64
2023-08-05T22:57:46.157Z,19.74
2023-08-05T23:00:15.387Z,19.82
2023-08-05T23:03:12.608Z,19.68
2023-08-05T23:05:43.902Z,19.57
2023-08-05T23:08:12.946Z,19.67
2023-08-05T23:10:46.124Z,19.46
2023-08-05T23:14:03.468Z,19.42
2023-08-05T23:16:36.685Z,19.44
2023-08-05T23:19:10.355Z,19.46
2023-08-05T23:21:44.317Z,19.57
2023-08-05T23:24:13.312Z,19.81
2023-08-05T23:26:42.525Z,19.91
2023-08-05T23:29:11.519Z,19.78
2023-08-05T23:31:42.163Z,19.82
2023-08-05T23:34:13.893Z,19.71
2023-08-05T23:36:42.632Z,19.79
2023-08-05T23:39:19.663Z,20.07
2023-08-05T23:41:48.447Z,19.73
2023-08-05T23:44:17.508Z,19.62
2023-08-05T23:46:46.273Z,19.47
2023-08-05T23:49:15.448Z,19.45
2023-08-05T23:51:44.079Z,19.45
2023-08-05T23:54:12.888Z,19.29
2023-08-05T23:56:43.265Z,19.43
2023-08-05T23:59:12.252Z,19.59
